• Join FlightAware (Why Join?)
  • Login
  • US Flag 
06:00AM EDT


 

Airport Tracker/Info


-or-


 

Live Flight TrackerFlight Track Log ✈ SWA1707 ✈ 23-Apr-2013 ✈ KDAL - KABQ

Flight Track Log - Related Links

Times and Time Zones

All times are in EDT time to prevent confusion due to time zone crossing. See the SWA1707 flight status page for this flight to view local times or setup timezone preferences in your user account.

Time Position Orientation Groundspeed Altitude Reporting Facility
EDT Latitude Longitude Course Direction KTS MPH feet Rate Location/Type
10:34PM 32.9333 -96.9500 320° Northwest 255 293 5,200  Level Dallas / Fort Worth TRACON
10:36PM 33.0542 -97.0639 322° Northwest 294 338 11,100 2,520 Climbing Fort Worth Center
10:37PM 33.0481 -97.1383 264° West 234 269 12,800 2,160 Climbing Fort Worth Center
10:38PM 33.0169 -97.2500 252° West 293 337 15,500 2,460 Climbing Fort Worth Center
10:39PM 33.0156 -97.4181 288° West  Level FlightAware Approximate
10:39PM 33.0253 -97.3467 276° West 334 384 17,800  Level Fort Worth Center
10:40PM 33.0608 -97.4731 289° West 355 409 20,200 2,220 Climbing Fort Worth Center
10:41PM 33.0900 -97.5769 289° West 367 422 22,300 2,280 Climbing Fort Worth Center
10:42PM 33.1272 -97.6961 290° West 381 438 24,800 2,100 Climbing Fort Worth Center
10:43PM 33.1625 -97.8228 288° West 378 435 26,500 1,620 Climbing Fort Worth Center
10:44PM 33.1997 -97.9447 290° West 378 435 28,100 1,800 Climbing Fort Worth Center
10:45PM 33.2264 -98.0392 289° West 384 442 30,100 2,160 Climbing Fort Worth Center
10:46PM 33.2653 -98.1736 289° West 373 429 32,500 2,040 Climbing Fort Worth Center
10:47PM 33.2958 -98.2833 288° West 365 420 34,200 1,560 Climbing Fort Worth Center
10:48PM 33.3264 -98.3956 288° West 360 414 35,700 900 Climbing Fort Worth Center
10:49PM 33.3589 -98.5028 290° West 354 407 36,000 120 Climbing Fort Worth Center
10:50PM 33.3892 -98.6100 289° West 354 407 36,000  Level Fort Worth Center
10:51PM 33.4214 -98.7225 289° West 348 400 36,000  Level Fort Worth Center
10:52PM 33.4536 -98.8375 289° West 348 400 36,000  Level Fort Worth Center
10:53PM 33.4856 -98.9503 289° West 348 400 36,000  Level Fort Worth Center
10:54PM 33.5133 -99.0578 287° West 353 406 36,000  Level Fort Worth Center
10:55PM 33.5453 -99.1706 289° West 353 406 36,000  Level Fort Worth Center
10:56PM 33.5769 -99.2833 289° West 353 406 36,000  Level Fort Worth Center
10:57PM 33.6067 -99.3936 288° West 353 406 36,000  Level Fort Worth Center
10:58PM 33.6383 -99.5067 289° West 353 406 36,000  Level Fort Worth Center
10:59PM 33.6697 -99.6172 289° West 353 406 36,000  Level Fort Worth Center
11:00PM 33.7011 -99.7328 288° West 353 406 36,000  Level Fort Worth Center
11:01PM 33.7303 -99.8436 288° West 358 412 36,000  Level Fort Worth Center
11:02PM 33.7614 -99.9619 288° West 363 418 36,000  Level Fort Worth Center
11:03PM 33.7922 -100.0778 288° West 369 425 36,000  Level Fort Worth Center
11:04PM 33.8211 -100.1861 288° West 369 425 36,000  Level Fort Worth Center
11:05PM 33.8519 -100.3022 288° West 369 425 36,000  Level Fort Worth Center
11:06PM 33.8828 -100.4133 289° West 363 418 36,000  Level Fort Worth Center
11:07PM 33.9133 -100.5269 288° West 363 418 36,000  Level Fort Worth Center
11:08PM 33.9439 -100.6406 288° West 363 418 36,000  Level Fort Worth Center
11:09PM 33.9722 -100.7544 287° West 363 418 36,000  Level Fort Worth Center
11:10PM 34.0025 -100.8683 288° West 363 418 36,000  Level Fort Worth Center
11:11PM 34.0350 -100.9700 291° West 355 409 36,000  Level Fort Worth Center
11:12PM 34.0608 -101.0936 284° West 360 414 36,000  Level Fort Worth Center
11:13PM 34.0850 -101.1925 286° West 354 407 36,000  Level Fort Worth Center
11:14PM 34.1167 -101.3144 287° West 354 407 36,000  Level Fort Worth Center
11:15PM 34.1428 -101.4133 288° West 343 395 36,000  Level Fort Worth Center
11:16PM 34.1719 -101.5378 286° West 348 400 36,000  Level Fort Worth Center
11:17PM 34.1981 -101.6344 288° West 342 394 36,000  Level Fort Worth Center
11:18PM 34.2292 -101.7614 287° West 347 399 36,000  Level Fort Worth Center
11:21PM 34.2883 -101.9950 287° West 353 406 36,000  Level Albuquerque Center
11:22PM 34.3164 -102.1089 287° West 353 406 36,000  Level Albuquerque Center
11:23PM 34.3458 -102.2253 287° West 357 411 36,000  Level Albuquerque Center
11:24PM 34.3736 -102.3406 286° West 357 411 36,000  Level Albuquerque Center
11:25PM 34.4014 -102.4533 287° West 353 406 36,000  Level Albuquerque Center
11:26PM 34.4350 -102.5914 286° West 354 407 36,000 -660 Level Albuquerque Center
11:27PM 34.4625 -102.7058 286° West 353 406 34,700 -1,020 Descending Albuquerque Center
11:28PM 34.4900 -102.8156 287° West 345 397 34,000 -360 Descending Albuquerque Center
11:29PM 34.5072 -102.9286 281° West 332 382 34,000  Level Albuquerque Center
11:30PM 34.5203 -103.0458 278° West 344 396 34,000  Level Albuquerque Center
11:31PM 34.5344 -103.1617 278° West 344 396 34,000  Level Albuquerque Center
11:32PM 34.5492 -103.2786 279° West 346 398 34,000  Level Albuquerque Center
11:33PM 34.5631 -103.3950 278° West 346 398 34,000  Level Albuquerque Center
11:34PM 34.5758 -103.5114 278° West 345 397 34,000  Level Albuquerque Center
11:35PM 34.5936 -103.6242 281° West 339 390 34,000  Level Albuquerque Center
11:36PM 34.6208 -103.7353 287° West 340 391 34,000  Level Albuquerque Center
11:37PM 34.6486 -103.8450 287° West 337 388 34,000  Level Albuquerque Center
11:38PM 34.6758 -103.9553 287° West 337 388 34,000  Level Albuquerque Center
11:39PM 34.7022 -104.0650 286° West 336 387 34,000  Level Albuquerque Center
11:40PM 34.7289 -104.1744 287° West 335 386 34,000  Level Albuquerque Center
11:41PM 34.7553 -104.2825 287° West 331 381 34,000  Level Albuquerque Center
11:42PM 34.7806 -104.3900 286° West 328 377 34,000  Level Albuquerque Center
11:43PM 34.8064 -104.4972 286° West 327 376 34,000  Level Albuquerque Center
11:44PM 34.8322 -104.6050 286° West 327 376 34,000  Level Albuquerque Center
11:45PM 34.8456 -104.7172 278° West 330 380 34,000  Level Albuquerque Center
11:46PM 34.8550 -104.8286 276° West 329 379 34,000  Level Albuquerque Center
11:47PM 34.8653 -104.9400 276° West 327 376 34,000  Level Albuquerque Center
11:48PM 34.8756 -105.0519 276° West 328 377 34,000 -840 Level Albuquerque Center
11:49PM 34.8844 -105.1644 276° West 330 380 32,400 -2,820 Descending Albuquerque Center
11:50PM 34.8967 -105.2997 276° West 338 389 28,300 -3,360 Descending Albuquerque Center
11:51PM 34.9078 -105.4206 276° West 351 404 25,600 -1,680 Descending Albuquerque Center
11:52PM 34.9181 -105.5411 276° West 353 406 25,000 -420 Descending Albuquerque Center
11:53PM 34.9286 -105.6497 277° West 326 375 24,800 -780 Descending Albuquerque Center
11:54PM 34.9303 -105.6958 273° West 318 366 23,900 -2,280 Descending Albuquerque Center
11:54PM 34.9361 -105.7581 277° West 320 368 22,500 -2,220 Descending Albuquerque Center
11:55PM 34.9386 -105.8000 274° West 314 361 21,700 -2,040 Descending Albuquerque Center
11:55PM 34.9461 -105.8619 278° West 309 356 20,400 -2,100 Descending Albuquerque Center
11:56PM 34.9464 -105.9017 271° West 304 350 19,600 -2,100 Descending Albuquerque Center
11:56PM 34.9533 -105.9617 278° West 311 358 18,300 -1,800 Descending Albuquerque Center
11:57PM 34.9564 -106.0158 274° West 316 364 17,800 -600 Descending Albuquerque Center
11:57PM 34.9558 -106.0622 269° West 297 342 17,700 -720 Descending Albuquerque Center
11:58PM 34.9564 -106.1117 271° West 273 314 17,100 -1,620 Descending Albuquerque Center
11:58PM 34.9569 -106.1539 271° West 274 315 16,100 -1,680 Descending Albuquerque Center
11:59PM 34.9578 -106.2022 271° West 265 305 15,400 -1,680 Descending Albuquerque Center
11:59PM 34.9592 -106.2464 272° West 272 313 14,400 -1,800 Descending Albuquerque Center
12:00AM 34.9592 -106.2953 270° West 275 316 13,600 -1,800 Descending Albuquerque Center
12:00AM 34.9603 -106.3394 272° West 274 315 12,600 -1,680 Descending Albuquerque Center
12:01AM 34.9589 -106.3886 268° West 277 319 11,900 -1,500 Descending Albuquerque Center
12:01AM 34.9578 -106.4328 268° West 275 316 11,100 -2,100 Descending Albuquerque Center
12:02AM 34.9558 -106.4803 267° West 269 310 9,800 -1,980 Descending Albuquerque Center
12:02AM 34.9533 -106.5250 266° West 273 314 9,100 -1,500 Descending Albuquerque Center
12:03AM 34.9531 -106.5742 270° West 280 322 8,300 -1,140 Descending Albuquerque Center
12:03AM 34.9431 -106.6175 254° West 275 316 8,000 -540 Descending Albuquerque Center
12:04AM 34.9314 -106.6575 250° West 236 272 7,800 -720 Descending Albuquerque Center
12:04AM 34.9431 -106.6803 302° West 229 264 7,300 -1,020 Descending Albuquerque Center
12:05AM 34.9644 -106.6878 344° North 139 160 6,800 -1,020 Descending Albuquerque Center
12:05AM 34.9881 -106.6722 28° Northeast 167 192 6,300 -720 Descending Albuquerque Center
12:06AM 34.9961 -106.6617 47° Northeast 132 152 6,100 -720 Descending Albuquerque Center
12:06AM 35.0153 -106.6386 45° Northeast 148 170 5,600 -480 Descending Albuquerque Center
12:08AM 35.0414 -106.6069 45° Northeast 145 167 5,300 -300 Descending Albuquerque Center